createdAt,value
2023-01-29T00:00:53.661Z,26.5
2023-01-29T00:05:49.927Z,26.2
2023-01-29T00:10:46.166Z,24.04
2023-01-29T00:15:42.388Z,26.419999999999998
2023-01-29T00:20:38.678Z,28.919999999999998
2023-01-29T00:25:34.914Z,24.939999999999998
2023-01-29T00:30:31.236Z,25.860000000000003
2023-01-29T00:35:27.445Z,28.54
2023-01-29T00:40:23.706Z,27.339999999999996
2023-01-29T00:45:19.954Z,27.72
2023-01-29T00:50:16.703Z,26.659999999999997
2023-01-29T00:55:13.475Z,24.340000000000003
2023-01-29T01:00:11.775Z,27.419999999999998
2023-01-29T01:05:09.022Z,25.059999999999995
2023-01-29T01:10:06.253Z,24.580000000000002
2023-01-29T01:15:02.554Z,31.52
2023-01-29T01:19:57.775Z,27.52
2023-01-29T01:24:53.054Z,25.6
2023-01-29T01:29:48.291Z,25.580000000000002
2023-01-29T01:34:44.559Z,23.8
2023-01-29T01:39:40.812Z,26.640000000000004
2023-01-29T01:44:47.064Z,26.639999999999997
2023-01-29T01:49:46.345Z,24.360000000000003
2023-01-29T01:54:44.595Z,24.919999999999998
2023-01-29T01:59:43.820Z,27.28
2023-01-29T02:04:46.062Z,25.38
2023-01-29T02:09:50.279Z,25.22
2023-01-29T02:14:46.587Z,18.580000000000002
2023-01-29T02:19:50.806Z,25.3
2023-01-29T02:24:59.018Z,25.22
2023-01-29T02:30:03.238Z,22.580000000000002
2023-01-29T02:35:09.525Z,21.779999999999998
2023-01-29T02:40:10.718Z,23.660000000000004
2023-01-29T02:45:11.974Z,24.580000000000002
2023-01-29T02:50:14.777Z,25.019999999999996
2023-01-29T02:55:16.491Z,24.98
2023-01-29T03:00:18.176Z,26.360000000000003
2023-01-29T03:05:21.002Z,23.26
2023-01-29T03:10:23.209Z,24
2023-01-29T03:15:23.432Z,21.54
2023-01-29T03:20:22.703Z,20.46
2023-01-29T03:25:22.956Z,20.580000000000002
2023-01-29T03:30:21.193Z,18.999999999999996
2023-01-29T03:35:22.453Z,15.940000000000003
2023-01-29T03:40:18.255Z,19.5
2023-01-29T03:45:22.936Z,19.4
2023-01-29T03:50:31.190Z,17.22
2023-01-29T03:55:33.436Z,13.320000000000002
2023-01-29T04:00:37.653Z,15.84
2023-01-29T04:05:39.930Z,13.24
2023-01-29T04:10:40.196Z,14.38
2023-01-29T04:15:40.411Z,14.98
2023-01-29T04:20:37.695Z,13
2023-01-29T04:25:40.965Z,12.780000000000001
2023-01-29T04:30:46.240Z,13.64
2023-01-29T04:35:54.378Z,13.719999999999999
2023-01-29T04:40:55.656Z,15.12
2023-01-29T04:46:02.844Z,11.86
2023-01-29T04:51:06.096Z,16.2
2023-01-29T04:56:08.339Z,14.4
2023-01-29T05:01:10.602Z,13.560000000000002
2023-01-29T05:06:07.868Z,13.2
2023-01-29T05:11:06.066Z,13.9
2023-01-29T05:16:09.403Z,13.9
2023-01-29T05:21:06.619Z,17
2023-01-29T05:26:03.820Z,19.2
2023-01-29T05:31:00.230Z,17.560000000000002
2023-01-29T05:35:58.415Z,13.64
2023-01-29T05:40:54.644Z,15.780000000000001
2023-01-29T05:45:51.893Z,15.540000000000001
2023-01-29T05:50:48.134Z,22.2
2023-01-29T05:55:44.414Z,20.22
2023-01-29T06:00:40.651Z,14.579999999999998
2023-01-29T06:05:37.916Z,15.36
2023-01-29T06:10:34.187Z,15.760000000000002
2023-01-29T06:15:30.429Z,16.04
2023-01-29T06:20:26.741Z,17.580000000000002
2023-01-29T06:25:22.935Z,16.96
2023-01-29T06:30:19.432Z,14.559999999999999
2023-01-29T06:35:15.448Z,19.06
2023-01-29T06:40:10.736Z,17.96
2023-01-29T06:45:07.980Z,18.24
2023-01-29T06:50:04.234Z,17.66
2023-01-29T06:55:00.529Z,20.18
2023-01-29T06:59:55.802Z,17.32
2023-01-29T07:04:52.026Z,19.46
2023-01-29T07:09:48.287Z,19.919999999999998
2023-01-29T07:14:44.605Z,39.38
2023-01-29T07:19:40.823Z,28.060000000000002
2023-01-29T07:24:37.084Z,21.48
2023-01-29T07:29:33.372Z,24.7
2023-01-29T07:34:29.558Z,28.98
2023-01-29T07:39:25.804Z,34.4
2023-01-29T07:44:22.121Z,25.699999999999996
2023-01-29T07:49:18.363Z,31.179999999999996
2023-01-29T07:54:14.609Z,26.7
2023-01-29T07:59:10.882Z,30.419999999999998
2023-01-29T08:04:07.198Z,27.880000000000003
2023-01-29T08:09:03.398Z,27.76
2023-01-29T08:13:59.678Z,21.54
2023-01-29T08:18:55.970Z,17.3
2023-01-29T08:23:52.174Z,22.020000000000003
2023-01-29T08:28:48.439Z,22.999999999999996
2023-01-29T08:33:43.714Z,24.119999999999997
2023-01-29T08:38:40.931Z,20.119999999999997
2023-01-29T08:43:38.189Z,22.18
2023-01-29T08:48:34.475Z,20.74
2023-01-29T08:53:30.717Z,24.800000000000004
2023-01-29T08:58:26.988Z,32.64
2023-01-29T09:03:23.259Z,19.28
2023-01-29T09:08:19.507Z,30.76
2023-01-29T09:13:15.833Z,22.44
2023-01-29T09:18:11.057Z,33.54
2023-01-29T09:23:07.307Z,21.459999999999997
2023-01-29T09:28:03.588Z,20.88
2023-01-29T09:32:59.820Z,17.360000000000003
2023-01-29T09:37:56.078Z,25.139999999999997
2023-01-29T09:42:57.300Z,33.31999999999999
2023-01-29T09:47:57.570Z,23.119999999999997
2023-01-29T09:52:58.850Z,20.3
2023-01-29T09:57:58.059Z,17.6
2023-01-29T10:03:14.285Z,29.6
2023-01-29T10:08:24.522Z,20.98
2023-01-29T10:13:32.709Z,29.839999999999996
2023-01-29T10:23:50.176Z,35.42
2023-01-29T10:28:50.419Z,20
2023-01-29T10:34:02.072Z,31.74
2023-01-29T10:38:59.917Z,21.88
2023-01-29T10:44:10.098Z,26.74
2023-01-29T10:49:19.375Z,44.92
2023-01-29T10:54:28.551Z,59.35999999999999
2023-01-29T10:59:35.840Z,26.18
2023-01-29T11:04:34.061Z,52.779999999999994
2023-01-29T11:09:35.351Z,26.2
2023-01-29T11:14:38.564Z,27.78
2023-01-29T11:19:37.790Z,20.6
2023-01-29T11:24:38.087Z,46.08
2023-01-29T11:29:39.303Z,35.980000000000004
2023-01-29T11:34:41.577Z,25.8
2023-01-29T11:39:43.846Z,50.16
2023-01-29T11:44:45.051Z,29.04
2023-01-29T11:49:50.263Z,39.2
2023-01-29T11:54:50.545Z,30.26
2023-01-29T11:59:57.772Z,33.18
2023-01-29T12:04:58.002Z,27.76
2023-01-29T12:09:56.232Z,26.779999999999994
2023-01-29T12:15:01.491Z,22.34
2023-01-29T12:20:03.740Z,25.24
2023-01-29T12:25:07.982Z,28.02
2023-01-29T12:30:53.225Z,37.68
2023-01-29T12:35:54.422Z,27.32
2023-01-29T12:40:55.599Z,38.279999999999994
2023-01-29T12:45:54.887Z,52.480000000000004
2023-01-29T12:50:53.125Z,32.4
2023-01-29T12:55:53.357Z,22.660000000000004
2023-01-29T13:00:54.638Z,27.48
2023-01-29T13:05:55.831Z,33.2
2023-01-29T13:10:57.083Z,39.96
2023-01-29T13:15:56.373Z,42.2
2023-01-29T13:20:56.612Z,26.98
2023-01-29T13:25:52.895Z,27.54
2023-01-29T13:31:06.074Z,24.48
2023-01-29T13:36:02.319Z,39.160000000000004
2023-01-29T13:41:01.618Z,29.640000000000004
2023-01-29T13:46:06.855Z,28.5
2023-01-29T13:51:11.081Z,30.2
2023-01-29T13:56:18.347Z,28.18
2023-01-29T14:01:25.607Z,26.46
2023-01-29T14:06:35.793Z,43.1
2023-01-29T14:11:36.027Z,42.82000000000001
2023-01-29T14:16:42.714Z,37.9
2023-01-29T14:21:48.498Z,37.08
2023-01-29T14:26:54.710Z,36.32000000000001
2023-01-29T14:31:57.936Z,27.26
2023-01-29T14:36:58.219Z,30.919999999999998
2023-01-29T14:41:57.451Z,32.42
2023-01-29T14:47:02.683Z,29.54
2023-01-29T14:52:03.962Z,49.8
2023-01-29T14:57:05.225Z,37.160000000000004
2023-01-29T15:02:09.570Z,50.220000000000006
2023-01-29T15:07:15.704Z,31.560000000000002
2023-01-29T15:12:19.932Z,23.54
2023-01-29T15:17:26.109Z,38.160000000000004
2023-01-29T15:22:31.371Z,31.439999999999998
2023-01-29T15:27:27.605Z,26.259999999999998
2023-01-29T15:32:25.881Z,32.34
2023-01-29T15:37:25.115Z,36.82
2023-01-29T15:42:21.376Z,39.5
2023-01-29T15:47:20.643Z,39.839999999999996
2023-01-29T15:52:19.864Z,55.839999999999996
2023-01-29T15:57:20.145Z,41.06
2023-01-29T16:02:27.413Z,39.2
2023-01-29T16:07:24.673Z,59.739999999999995
2023-01-29T16:12:20.904Z,49.220000000000006
2023-01-29T16:17:22.162Z,51.82000000000001
2023-01-29T16:22:22.399Z,46.04
2023-01-29T16:27:19.651Z,21.520000000000003
2023-01-29T16:32:17.052Z,27.020000000000003
2023-01-29T16:37:19.212Z,33.61999999999999
2023-01-29T16:42:20.398Z,34.72
2023-01-29T16:47:22.625Z,42
2023-01-29T16:57:29.145Z,24.1
2023-01-29T17:02:27.393Z,31.720000000000006
2023-01-29T17:07:26.644Z,28.68
2023-01-29T17:12:25.891Z,35.94
2023-01-29T17:17:29.137Z,39.22
2023-01-29T17:22:25.377Z,33.519999999999996
2023-01-29T17:27:22.619Z,30.4
2023-01-29T17:32:18.918Z,27.639999999999997
2023-01-29T17:37:15.166Z,23.2
2023-01-29T17:42:12.417Z,32.68
2023-01-29T17:47:11.683Z,37.42
2023-01-29T17:52:07.924Z,49.88000000000001
2023-01-29T17:57:04.184Z,37.67999999999999
2023-01-29T18:02:00.506Z,37.779999999999994
2023-01-29T18:06:58.719Z,30.540000000000003
2023-01-29T18:11:55.029Z,36.059999999999995
2023-01-29T18:16:51.414Z,46.080000000000005
2023-01-29T18:21:47.479Z,38.239999999999995
2023-01-29T18:26:43.834Z,56.17999999999999
2023-01-29T18:31:39.998Z,91.58
2023-01-29T18:36:36.299Z,35.739999999999995
2023-01-29T18:41:36.524Z,34.42
2023-01-29T18:46:32.817Z,25.880000000000003
2023-01-29T18:51:29.012Z,29.9
2023-01-29T18:56:31.255Z,21.279999999999998
2023-01-29T19:01:37.524Z,27.54
2023-01-29T19:06:38.735Z,19.859999999999996
2023-01-29T19:11:38.978Z,24.72
2023-01-29T19:16:39.229Z,16.279999999999998
2023-01-29T19:21:40.511Z,15.719999999999999
2023-01-29T19:26:40.738Z,14.66
2023-01-29T19:31:41.081Z,19.82
2023-01-29T19:36:41.214Z,21.059999999999995
2023-01-29T19:41:37.676Z,33.38
2023-01-29T19:46:37.735Z,15.879999999999999
2023-01-29T19:51:39.012Z,17.76
2023-01-29T19:56:40.293Z,20.099999999999998
2023-01-29T20:01:44.537Z,17.82
2023-01-29T20:06:45.729Z,11.700000000000001
2023-01-29T20:11:45.986Z,19.119999999999997
2023-01-29T20:16:46.240Z,30.119999999999997
2023-01-29T20:21:47.502Z,31.880000000000003
2023-01-29T20:26:47.792Z,61.48
2023-01-29T20:31:44.065Z,46.519999999999996
2023-01-29T20:36:41.229Z,38.9
2023-01-29T20:41:38.505Z,37.36
2023-01-29T20:46:35.783Z,34.38
2023-01-29T20:51:38.004Z,36.739999999999995
2023-01-29T20:56:38.377Z,33.980000000000004
2023-01-29T21:01:40.512Z,29.54
2023-01-29T21:06:41.752Z,49.5
2023-01-29T21:11:42.012Z,197.21999999999997
2023-01-29T21:16:38.284Z,123.05999999999999
2023-01-29T21:21:34.534Z,104.25999999999999
2023-01-29T21:26:32.775Z,151.7
2023-01-29T21:31:35.030Z,101.74000000000001
2023-01-29T21:36:31.258Z,57.080000000000005
2023-01-29T21:41:31.543Z,41
2023-01-29T21:46:27.769Z,49.260000000000005
2023-01-29T21:51:28.026Z,46.8
2023-01-29T21:56:24.262Z,37.9
2023-01-29T22:01:37.498Z,95.12
2023-01-29T22:06:24.836Z,84.42
2023-01-29T22:11:21.065Z,46.88
2023-01-29T22:16:17.302Z,24.72
2023-01-29T22:21:13.580Z,22.3
2023-01-29T22:26:10.888Z,16.9
2023-01-29T22:31:07.105Z,21.360000000000003
2023-01-29T22:36:03.336Z,26.259999999999998
2023-01-29T22:40:59.595Z,45.6
2023-01-29T22:45:55.877Z,27.380000000000003
2023-01-29T22:50:56.133Z,30.68
2023-01-29T22:55:53.392Z,63.419999999999995
2023-01-29T23:00:49.597Z,35.1
2023-01-29T23:05:45.906Z,27.74
2023-01-29T23:10:43.128Z,24.78
2023-01-29T23:15:39.461Z,27.04
2023-01-29T23:20:35.625Z,29.28
2023-01-29T23:25:31.942Z,27.9
2023-01-29T23:30:28.235Z,29.080000000000002
2023-01-29T23:35:24.430Z,24.66
2023-01-29T23:40:20.702Z,23.28
2023-01-29T23:45:16.940Z,23.94
2023-01-29T23:50:13.245Z,18.1
2023-01-29T23:55:09.466Z,24.68
